Toutle, WA

11:09 PM PDT on October 25, 2014 (GMT -0700)
Atmore Acres | Change Station
CLOSE
Current Station
Personal Weather Station
Location: Toutle, WA
Elevation: 512 ft
Nearby Weather Stations

Elev 512 ft 46.32 °N, 122.72 °W | Updated 2 minutes ago

Overcast
Overcast
48.3 °F
Feels Like 48 °F
N
0.0
Wind Variable Wind from ENE
Gusts 0.0 mph

Today
High -- | Low -- °F
--% Chance of Precip.
Yesterday
High -- | Low -- °F
Precip. -- in
7:42 AM 6:06 PM
Waxing Crescent, 6% visible
Pressure 29.88 in
Visibility 10.0 miles
Clouds Few 2600 ft
Scattered Clouds 3100 ft
Mostly Cloudy 3800 ft
Windchill 48 °F
Dew Point 48 °F
Humidity 99%
Rainfall 0.25 in
Snow Depth Not available.
UV 0 out of 12
Pollen .40 out of 12
Air Quality Not available.
Flu Activity Sporadic
METAR KKLS 260555Z AUTO 15006KT 10SM FEW026 SCT031 BKN038 11/08 A2988 RMK AO1 P0001 60021 52044

More Conditions Fewer Conditions

Pressure 29.88 in
Visibility 10.0 miles
Clouds Few 2600 ft
Scattered Clouds 3100 ft
Mostly Cloudy 3800 ft
Windchill 48 °F
Dew Point 48 °F
Humidity 99%
Rainfall 0.25 in
Snow Depth Not available.
UV 0 out of 12
Pollen .40 out of 12
Air Quality Not available.
Flu Activity Sporadic
METAR KKLS 260555Z AUTO 15006KT 10SM FEW026 SCT031 BKN038 11/08 A2988 RMK AO1 P0001 60021 52044

More Conditions Fewer Conditions

10-Day Weather Forecast

Almanac

Astronomy

Oct. 25, 2014 Rise Set
Actual Time 7:42 AM PDT 6:06 PM PDT
Civil Twilight 7:11 AM PDT 6:37 PM PDT
Nautical Twilight 6:36 AM PDT 7:12 PM PDT
Astronomical Twilight 6:01 AM PDT 7:47 PM PDT
Moon 9:31 AM PDT (10/25) 7:28 PM PDT (10/25)
Length of Visible Light 11h 26m
Length of Day
10h 24m
Tomorrow will be 3m 2s shorter.
Waxing Crescent, 6% of the Moon is Illuminated
Oct 26
Waxing Crescent
Oct 30
First Quarter
Nov 6
Full
Nov 14
Last Quarter
Nov 22
New

Yesterday's Extremes

State Highs State Lows

Community

WunderPhotos

Upload Photos

1,765,113 photos uploaded!

Nearby

Snow Depth

Station Depth Elevation
Spirit Lake 0 in 3120 ft
Swift Creek 0 in 3770 ft
June Lake 0 in 3340 ft
Lone Pine 0 in 3800 ft
Spencer Meadow 0 in 3400 ft

Earthquake Activity

City Distance Mag. Time & Date
No recent earthquake activity has been reported nearby.
Minimum magnitude displayed is 2.5.

Coastal Water Temperatures

Place Temperature
Astoria, OR 59.0 °F
Westport, WA 57.0 °F

Nearby Weather Stations